sensor_id;sensor_type;location;lat;lon;timestamp;temperature;humidity
41985;DHT22;28319;48.116;10.818;2023-01-28T00:04:09;-1.10;99.90
41985;DHT22;28319;48.116;10.818;2023-01-28T00:09:11;-1.10;99.90
41985;DHT22;28319;48.116;10.818;2023-01-28T00:14:15;-1.10;99.90
41985;DHT22;28319;48.116;10.818;2023-01-28T00:19:17;-1.10;99.90
41985;DHT22;28319;48.116;10.818;2023-01-28T00:24:19;-1.10;99.90
41985;DHT22;28319;48.116;10.818;2023-01-28T00:29:23;-1.10;99.90
41985;DHT22;28319;48.116;10.818;2023-01-28T00:34:25;-1.10;99.90
41985;DHT22;28319;48.116;10.818;2023-01-28T00:39:27;-1.20;99.90
41985;DHT22;28319;48.116;10.818;2023-01-28T00:44:30;-1.10;99.90
41985;DHT22;28319;48.116;10.818;2023-01-28T00:49:32;-1.10;99.90
41985;DHT22;28319;48.116;10.818;2023-01-28T00:54:34;-1.20;99.90
41985;DHT22;28319;48.116;10.818;2023-01-28T00:59:38;-1.20;99.90
41985;DHT22;28319;48.116;10.818;2023-01-28T01:04:40;-1.20;99.90
41985;DHT22;28319;48.116;10.818;2023-01-28T01:09:54;-1.20;99.90
41985;DHT22;28319;48.116;10.818;2023-01-28T01:14:57;-1.30;99.90
41985;DHT22;28319;48.116;10.818;2023-01-28T01:20:00;-1.30;99.90
41985;DHT22;28319;48.116;10.818;2023-01-28T01:25:02;-1.20;99.90
41985;DHT22;28319;48.116;10.818;2023-01-28T01:30:07;-1.20;99.90
41985;DHT22;28319;48.116;10.818;2023-01-28T01:35:10;-1.10;99.90
41985;DHT22;28319;48.116;10.818;2023-01-28T01:40:12;-1.30;99.90
41985;DHT22;28319;48.116;10.818;2023-01-28T01:50:20;-1.20;99.90
41985;DHT22;28319;48.116;10.818;2023-01-28T01:55:26;-1.30;99.90
41985;DHT22;28319;48.116;10.818;2023-01-28T02:00:31;-1.10;99.90
41985;DHT22;28319;48.116;10.818;2023-01-28T02:05:33;-1.10;99.90
41985;DHT22;28319;48.116;10.818;2023-01-28T02:10:35;-1.20;99.90
41985;DHT22;28319;48.116;10.818;2023-01-28T02:15:39;-1.20;99.90
41985;DHT22;28319;48.116;10.818;2023-01-28T02:20:59;-1.20;99.90
41985;DHT22;28319;48.116;10.818;2023-01-28T02:31:38;-1.20;99.90
41985;DHT22;28319;48.116;10.818;2023-01-28T02:36:44;-1.20;99.90
41985;DHT22;28319;48.116;10.818;2023-01-28T02:41:51;-1.10;99.90
41985;DHT22;28319;48.116;10.818;2023-01-28T02:46:56;-1.20;99.90
41985;DHT22;28319;48.116;10.818;2023-01-28T02:52:31;-1.10;99.90
41985;DHT22;28319;48.116;10.818;2023-01-28T02:57:59;-1.10;99.90
41985;DHT22;28319;48.116;10.818;2023-01-28T03:03:14;-1.10;99.90
41985;DHT22;28319;48.116;10.818;2023-01-28T03:08:16;-1.10;99.90
41985;DHT22;28319;48.116;10.818;2023-01-28T03:13:37;-1.10;99.90
41985;DHT22;28319;48.116;10.818;2023-01-28T03:18:59;-1.10;99.90
41985;DHT22;28319;48.116;10.818;2023-01-28T03:24:22;-1.20;99.90
41985;DHT22;28319;48.116;10.818;2023-01-28T03:29:43;-1.30;99.90
41985;DHT22;28319;48.116;10.818;2023-01-28T03:35:06;-1.30;99.90
41985;DHT22;28319;48.116;10.818;2023-01-28T03:40:27;-1.30;99.90
41985;DHT22;28319;48.116;10.818;2023-01-28T03:45:29;-1.30;99.90
41985;DHT22;28319;48.116;10.818;2023-01-28T03:50:33;-1.40;99.90
41985;DHT22;28319;48.116;10.818;2023-01-28T03:55:35;-1.40;99.90
41985;DHT22;28319;48.116;10.818;2023-01-28T04:00:37;-1.40;99.90
41985;DHT22;28319;48.116;10.818;2023-01-28T04:05:44;-1.40;99.90
41985;DHT22;28319;48.116;10.818;2023-01-28T04:10:46;-1.40;99.90
41985;DHT22;28319;48.116;10.818;2023-01-28T04:15:48;-1.40;99.90
41985;DHT22;28319;48.116;10.818;2023-01-28T04:20:52;-1.40;99.90
41985;DHT22;28319;48.116;10.818;2023-01-28T04:25:54;-1.40;99.90
41985;DHT22;28319;48.116;10.818;2023-01-28T04:30:56;-1.40;99.90
41985;DHT22;28319;48.116;10.818;2023-01-28T04:36:00;-1.40;99.90
41985;DHT22;28319;48.116;10.818;2023-01-28T04:41:02;-1.40;99.90
41985;DHT22;28319;48.116;10.818;2023-01-28T04:46:04;-1.40;99.90
41985;DHT22;28319;48.116;10.818;2023-01-28T04:51:08;-1.30;99.90
41985;DHT22;28319;48.116;10.818;2023-01-28T04:56:10;-1.40;99.90
41985;DHT22;28319;48.116;10.818;2023-01-28T05:01:12;-1.40;99.90
41985;DHT22;28319;48.116;10.818;2023-01-28T05:06:15;-1.40;99.90
41985;DHT22;28319;48.116;10.818;2023-01-28T05:11:17;-1.40;99.90
41985;DHT22;28319;48.116;10.818;2023-01-28T05:16:19;-1.30;99.90
41985;DHT22;28319;48.116;10.818;2023-01-28T05:21:23;-1.40;99.90
41985;DHT22;28319;48.116;10.818;2023-01-28T05:26:25;-1.40;99.90
41985;DHT22;28319;48.116;10.818;2023-01-28T05:31:27;-1.50;99.90
41985;DHT22;28319;48.116;10.818;2023-01-28T05:36:31;-1.50;99.90
41985;DHT22;28319;48.116;10.818;2023-01-28T05:41:33;-1.40;99.90
41985;DHT22;28319;48.116;10.818;2023-01-28T05:46:34;-1.40;99.90
41985;DHT22;28319;48.116;10.818;2023-01-28T05:51:38;-1.40;99.90
41985;DHT22;28319;48.116;10.818;2023-01-28T05:56:40;-1.40;99.90
41985;DHT22;28319;48.116;10.818;2023-01-28T06:01:43;-1.40;99.90
41985;DHT22;28319;48.116;10.818;2023-01-28T06:06:46;-1.40;99.90
41985;DHT22;28319;48.116;10.818;2023-01-28T06:11:48;-1.40;99.90
41985;DHT22;28319;48.116;10.818;2023-01-28T06:16:50;-1.40;99.90
41985;DHT22;28319;48.116;10.818;2023-01-28T06:21:54;-1.40;99.90
41985;DHT22;28319;48.116;10.818;2023-01-28T06:26:56;-1.40;99.90
41985;DHT22;28319;48.116;10.818;2023-01-28T06:31:58;-1.40;99.90
41985;DHT22;28319;48.116;10.818;2023-01-28T06:37:02;-1.40;99.90
41985;DHT22;28319;48.116;10.818;2023-01-28T06:42:04;-1.30;99.90
41985;DHT22;28319;48.116;10.818;2023-01-28T06:47:06;-1.30;99.90
41985;DHT22;28319;48.116;10.818;2023-01-28T06:52:10;-1.30;99.90
41985;DHT22;28319;48.116;10.818;2023-01-28T06:57:12;-1.30;99.90
41985;DHT22;28319;48.116;10.818;2023-01-28T07:02:14;-1.40;99.90
41985;DHT22;28319;48.116;10.818;2023-01-28T07:07:17;-1.40;99.90
41985;DHT22;28319;48.116;10.818;2023-01-28T07:12:19;-1.30;99.90
41985;DHT22;28319;48.116;10.818;2023-01-28T07:17:21;-1.30;99.90
41985;DHT22;28319;48.116;10.818;2023-01-28T07:22:25;-1.30;99.90
41985;DHT22;28319;48.116;10.818;2023-01-28T07:27:27;-1.20;99.90
41985;DHT22;28319;48.116;10.818;2023-01-28T07:32:29;-1.30;99.90
41985;DHT22;28319;48.116;10.818;2023-01-28T07:37:33;-1.30;99.90
41985;DHT22;28319;48.116;10.818;2023-01-28T07:42:35;-1.30;99.90
41985;DHT22;28319;48.116;10.818;2023-01-28T07:47:37;-1.20;99.90
41985;DHT22;28319;48.116;10.818;2023-01-28T07:52:40;-1.20;99.90
41985;DHT22;28319;48.116;10.818;2023-01-28T07:57:52;-1.20;99.90
41985;DHT22;28319;48.116;10.818;2023-01-28T08:02:55;-1.20;99.90
41985;DHT22;28319;48.116;10.818;2023-01-28T08:07:59;-1.20;99.90
41985;DHT22;28319;48.116;10.818;2023-01-28T08:13:01;-1.10;99.90
41985;DHT22;28319;48.116;10.818;2023-01-28T08:18:05;-1.00;99.90
41985;DHT22;28319;48.116;10.818;2023-01-28T08:23:11;-1.00;99.90
41985;DHT22;28319;48.116;10.818;2023-01-28T08:28:14;-1.10;99.90
41985;DHT22;28319;48.116;10.818;2023-01-28T08:33:17;-1.00;99.90
41985;DHT22;28319;48.116;10.818;2023-01-28T08:38:21;-1.00;99.90
41985;DHT22;28319;48.116;10.818;2023-01-28T08:43:23;-1.00;99.90
41985;DHT22;28319;48.116;10.818;2023-01-28T08:48:25;-0.90;99.90
41985;DHT22;28319;48.116;10.818;2023-01-28T08:53:28;-1.00;99.90
41985;DHT22;28319;48.116;10.818;2023-01-28T08:58:30;-1.00;99.90
41985;DHT22;28319;48.116;10.818;2023-01-28T09:03:32;-1.00;99.90
41985;DHT22;28319;48.116;10.818;2023-01-28T09:08:37;-0.90;99.90
41985;DHT22;28319;48.116;10.818;2023-01-28T09:13:39;-0.80;99.90
41985;DHT22;28319;48.116;10.818;2023-01-28T09:18:41;-0.70;99.90
41985;DHT22;28319;48.116;10.818;2023-01-28T09:23:45;-0.80;99.90
41985;DHT22;28319;48.116;10.818;2023-01-28T09:28:47;-0.80;99.90
41985;DHT22;28319;48.116;10.818;2023-01-28T09:33:49;-0.70;99.90
41985;DHT22;28319;48.116;10.818;2023-01-28T09:38:57;-0.60;99.90
41985;DHT22;28319;48.116;10.818;2023-01-28T09:44:05;-0.50;99.90
41985;DHT22;28319;48.116;10.818;2023-01-28T09:49:17;-0.30;99.90
41985;DHT22;28319;48.116;10.818;2023-01-28T09:54:28;-0.30;99.90
41985;DHT22;28319;48.116;10.818;2023-01-28T09:59:36;-0.40;99.90
41985;DHT22;28319;48.116;10.818;2023-01-28T10:04:52;-0.30;99.90
41985;DHT22;28319;48.116;10.818;2023-01-28T10:10:05;-0.30;99.90
41985;DHT22;28319;48.116;10.818;2023-01-28T10:20:41;-0.30;99.90
41985;DHT22;28319;48.116;10.818;2023-01-28T10:25:47;-0.20;99.90
41985;DHT22;28319;48.116;10.818;2023-01-28T10:30:49;-0.40;99.90
41985;DHT22;28319;48.116;10.818;2023-01-28T10:35:53;-0.50;99.90
41985;DHT22;28319;48.116;10.818;2023-01-28T10:41:00;-0.40;99.90
41985;DHT22;28319;48.116;10.818;2023-01-28T10:46:06;-0.50;99.90
41985;DHT22;28319;48.116;10.818;2023-01-28T10:51:10;-0.50;99.90
41985;DHT22;28319;48.116;10.818;2023-01-28T10:56:16;-0.60;99.90
41985;DHT22;28319;48.116;10.818;2023-01-28T11:01:18;-0.60;99.90
41985;DHT22;28319;48.116;10.818;2023-01-28T11:06:25;-0.50;99.90
41985;DHT22;28319;48.116;10.818;2023-01-28T11:11:29;-0.40;99.90
41985;DHT22;28319;48.116;10.818;2023-01-28T11:16:31;-0.40;99.90
41985;DHT22;28319;48.116;10.818;2023-01-28T11:21:34;-0.20;99.90
41985;DHT22;28319;48.116;10.818;2023-01-28T11:26:42;-0.20;99.90
41985;DHT22;28319;48.116;10.818;2023-01-28T11:31:44;-0.10;99.90
41985;DHT22;28319;48.116;10.818;2023-01-28T11:36:51;0.00;99.90
41985;DHT22;28319;48.116;10.818;2023-01-28T11:42:02;0.10;99.90
41985;DHT22;28319;48.116;10.818;2023-01-28T11:47:40;0.10;99.90
41985;DHT22;28319;48.116;10.818;2023-01-28T11:52:57;0.20;99.90
41985;DHT22;28319;48.116;10.818;2023-01-28T11:58:09;0.20;99.90
41985;DHT22;28319;48.116;10.818;2023-01-28T12:03:27;0.40;99.90
41985;DHT22;28319;48.116;10.818;2023-01-28T12:08:37;0.50;99.90
41985;DHT22;28319;48.116;10.818;2023-01-28T12:13:52;0.50;99.90
41985;DHT22;28319;48.116;10.818;2023-01-28T12:24:36;0.20;99.90
41985;DHT22;28319;48.116;10.818;2023-01-28T12:29:49;0.30;99.90
41985;DHT22;28319;48.116;10.818;2023-01-28T12:35:18;0.10;99.90
41985;DHT22;28319;48.116;10.818;2023-01-28T12:40:48;0.10;99.90
41985;DHT22;28319;48.116;10.818;2023-01-28T12:45:57;0.20;99.90
41985;DHT22;28319;48.116;10.818;2023-01-28T12:51:04;0.20;99.90
41985;DHT22;28319;48.116;10.818;2023-01-28T12:56:14;0.30;99.90
41985;DHT22;28319;48.116;10.818;2023-01-28T13:01:22;0.30;99.90
41985;DHT22;28319;48.116;10.818;2023-01-28T13:06:30;0.40;99.90
41985;DHT22;28319;48.116;10.818;2023-01-28T13:11:34;0.40;99.90
41985;DHT22;28319;48.116;10.818;2023-01-28T13:16:38;0.40;99.90
41985;DHT22;28319;48.116;10.818;2023-01-28T13:21:40;0.40;99.90
41985;DHT22;28319;48.116;10.818;2023-01-28T13:26:43;0.40;99.90
41985;DHT22;28319;48.116;10.818;2023-01-28T13:31:48;0.40;99.90
41985;DHT22;28319;48.116;10.818;2023-01-28T13:36:52;0.40;99.90
41985;DHT22;28319;48.116;10.818;2023-01-28T13:42:06;0.40;99.90
41985;DHT22;28319;48.116;10.818;2023-01-28T13:47:37;0.30;99.90
41985;DHT22;28319;48.116;10.818;2023-01-28T13:53:32;0.70;99.90
41985;DHT22;28319;48.116;10.818;2023-01-28T13:59:24;1.00;99.90
41985;DHT22;28319;48.116;10.818;2023-01-28T14:05:37;0.40;99.90
41985;DHT22;28319;48.116;10.818;2023-01-28T14:10:58;0.30;99.90
41985;DHT22;28319;48.116;10.818;2023-01-28T14:16:35;0.30;99.90
41985;DHT22;28319;48.116;10.818;2023-01-28T14:21:42;0.20;99.90
41985;DHT22;28319;48.116;10.818;2023-01-28T14:26:51;0.20;99.90
41985;DHT22;28319;48.116;10.818;2023-01-28T14:31:55;0.20;99.90
41985;DHT22;28319;48.116;10.818;2023-01-28T14:37:02;0.20;99.90
41985;DHT22;28319;48.116;10.818;2023-01-28T14:42:13;0.20;99.90
41985;DHT22;28319;48.116;10.818;2023-01-28T14:47:35;0.20;99.90
41985;DHT22;28319;48.116;10.818;2023-01-28T14:58:13;0.00;99.90
41985;DHT22;28319;48.116;10.818;2023-01-28T15:03:17;0.10;99.90
41985;DHT22;28319;48.116;10.818;2023-01-28T15:08:22;0.00;99.90
41985;DHT22;28319;48.116;10.818;2023-01-28T15:13:26;0.00;99.90
41985;DHT22;28319;48.116;10.818;2023-01-28T15:18:31;0.10;99.90
41985;DHT22;28319;48.116;10.818;2023-01-28T15:23:37;0.00;99.90
41985;DHT22;28319;48.116;10.818;2023-01-28T15:28:42;0.00;99.90
41985;DHT22;28319;48.116;10.818;2023-01-28T15:33:45;0.10;99.90
41985;DHT22;28319;48.116;10.818;2023-01-28T15:38:48;0.00;99.90
41985;DHT22;28319;48.116;10.818;2023-01-28T15:43:51;0.00;99.90
41985;DHT22;28319;48.116;10.818;2023-01-28T15:48:57;0.00;99.90
41985;DHT22;28319;48.116;10.818;2023-01-28T15:54:04;0.00;99.90
41985;DHT22;28319;48.116;10.818;2023-01-28T15:59:17;0.00;99.90
41985;DHT22;28319;48.116;10.818;2023-01-28T16:04:25;0.00;99.90
41985;DHT22;28319;48.116;10.818;2023-01-28T16:09:31;-0.10;99.90
41985;DHT22;28319;48.116;10.818;2023-01-28T16:14:37;0.00;99.90
41985;DHT22;28319;48.116;10.818;2023-01-28T16:19:45;0.10;99.90
41985;DHT22;28319;48.116;10.818;2023-01-28T16:24:52;0.00;99.90
41985;DHT22;28319;48.116;10.818;2023-01-28T16:29:54;0.00;99.90
41985;DHT22;28319;48.116;10.818;2023-01-28T16:34:56;0.10;99.90
41985;DHT22;28319;48.116;10.818;2023-01-28T16:40:00;0.10;99.90
41985;DHT22;28319;48.116;10.818;2023-01-28T16:45:03;0.10;99.90
41985;DHT22;28319;48.116;10.818;2023-01-28T16:50:07;0.00;99.90
41985;DHT22;28319;48.116;10.818;2023-01-28T16:55:12;0.00;99.90
41985;DHT22;28319;48.116;10.818;2023-01-28T17:00:16;0.10;99.90
41985;DHT22;28319;48.116;10.818;2023-01-28T17:05:20;0.10;99.90
41985;DHT22;28319;48.116;10.818;2023-01-28T17:10:24;0.00;99.90
41985;DHT22;28319;48.116;10.818;2023-01-28T17:15:26;-0.10;99.90
41985;DHT22;28319;48.116;10.818;2023-01-28T17:20:28;0.00;99.90
41985;DHT22;28319;48.116;10.818;2023-01-28T17:25:35;-0.10;99.90
41985;DHT22;28319;48.116;10.818;2023-01-28T17:30:39;-0.10;99.90
41985;DHT22;28319;48.116;10.818;2023-01-28T17:35:45;-0.10;99.90
41985;DHT22;28319;48.116;10.818;2023-01-28T17:40:49;-0.10;99.90
41985;DHT22;28319;48.116;10.818;2023-01-28T17:45:51;-0.20;99.90
41985;DHT22;28319;48.116;10.818;2023-01-28T17:50:55;-0.20;99.90
41985;DHT22;28319;48.116;10.818;2023-01-28T17:55:58;-0.20;99.90
41985;DHT22;28319;48.116;10.818;2023-01-28T18:01:07;-0.20;99.90
41985;DHT22;28319;48.116;10.818;2023-01-28T18:06:09;-0.10;99.90
41985;DHT22;28319;48.116;10.818;2023-01-28T18:11:16;-0.10;99.90
41985;DHT22;28319;48.116;10.818;2023-01-28T18:16:19;-0.10;99.90
41985;DHT22;28319;48.116;10.818;2023-01-28T18:21:29;-0.10;99.90
41985;DHT22;28319;48.116;10.818;2023-01-28T18:26:33;0.00;99.90
41985;DHT22;28319;48.116;10.818;2023-01-28T18:31:36;0.00;99.90
41985;DHT22;28319;48.116;10.818;2023-01-28T18:36:38;0.10;99.90
41985;DHT22;28319;48.116;10.818;2023-01-28T18:41:41;0.00;99.90
41985;DHT22;28319;48.116;10.818;2023-01-28T18:46:43;0.00;99.90
41985;DHT22;28319;48.116;10.818;2023-01-28T18:51:46;0.00;99.90
41985;DHT22;28319;48.116;10.818;2023-01-28T18:56:49;0.00;99.90
41985;DHT22;28319;48.116;10.818;2023-01-28T19:01:52;0.00;99.90
41985;DHT22;28319;48.116;10.818;2023-01-28T19:06:54;0.00;99.90
41985;DHT22;28319;48.116;10.818;2023-01-28T19:11:58;0.10;99.90
41985;DHT22;28319;48.116;10.818;2023-01-28T19:17:00;0.10;99.90
41985;DHT22;28319;48.116;10.818;2023-01-28T19:22:02;0.10;99.90
41985;DHT22;28319;48.116;10.818;2023-01-28T19:27:06;0.10;99.90
41985;DHT22;28319;48.116;10.818;2023-01-28T19:32:08;0.10;99.90
41985;DHT22;28319;48.116;10.818;2023-01-28T19:37:10;0.00;99.90
41985;DHT22;28319;48.116;10.818;2023-01-28T19:42:14;0.10;99.90
41985;DHT22;28319;48.116;10.818;2023-01-28T19:47:16;0.20;99.90
41985;DHT22;28319;48.116;10.818;2023-01-28T19:52:18;0.10;99.90
41985;DHT22;28319;48.116;10.818;2023-01-28T19:57:22;0.20;99.90
41985;DHT22;28319;48.116;10.818;2023-01-28T20:02:24;0.20;99.90
41985;DHT22;28319;48.116;10.818;2023-01-28T20:07:27;0.30;99.90
41985;DHT22;28319;48.116;10.818;2023-01-28T20:12:30;0.10;99.90
41985;DHT22;28319;48.116;10.818;2023-01-28T20:17:32;0.20;99.90
41985;DHT22;28319;48.116;10.818;2023-01-28T20:22:34;0.20;99.90
41985;DHT22;28319;48.116;10.818;2023-01-28T20:27:40;0.30;99.90
41985;DHT22;28319;48.116;10.818;2023-01-28T20:32:42;0.30;99.90
41985;DHT22;28319;48.116;10.818;2023-01-28T20:37:44;0.40;99.90
41985;DHT22;28319;48.116;10.818;2023-01-28T20:42:47;0.30;99.90
41985;DHT22;28319;48.116;10.818;2023-01-28T20:47:49;0.20;99.90
41985;DHT22;28319;48.116;10.818;2023-01-28T20:52:51;0.10;99.90
41985;DHT22;28319;48.116;10.818;2023-01-28T20:57:55;0.00;99.90
41985;DHT22;28319;48.116;10.818;2023-01-28T21:02:57;0.00;99.90
41985;DHT22;28319;48.116;10.818;2023-01-28T21:07:59;0.00;99.90
41985;DHT22;28319;48.116;10.818;2023-01-28T21:13:03;0.10;99.90
41985;DHT22;28319;48.116;10.818;2023-01-28T21:18:05;0.00;99.90
41985;DHT22;28319;48.116;10.818;2023-01-28T21:23:08;0.00;99.90
41985;DHT22;28319;48.116;10.818;2023-01-28T21:28:15;-0.10;99.90
41985;DHT22;28319;48.116;10.818;2023-01-28T21:33:18;-0.10;99.90
41985;DHT22;28319;48.116;10.818;2023-01-28T21:38:20;-0.10;99.90
41985;DHT22;28319;48.116;10.818;2023-01-28T21:43:23;-0.20;99.90
41985;DHT22;28319;48.116;10.818;2023-01-28T21:48:25;-0.20;99.90
41985;DHT22;28319;48.116;10.818;2023-01-28T21:53:28;-0.10;99.90
41985;DHT22;28319;48.116;10.818;2023-01-28T21:58:33;-0.10;99.90
41985;DHT22;28319;48.116;10.818;2023-01-28T22:03:52;-0.30;99.90
41985;DHT22;28319;48.116;10.818;2023-01-28T22:08:55;-0.30;99.90
41985;DHT22;28319;48.116;10.818;2023-01-28T22:13:58;-0.30;99.90
41985;DHT22;28319;48.116;10.818;2023-01-28T22:19:00;-0.30;99.90
41985;DHT22;28319;48.116;10.818;2023-01-28T22:24:02;-0.40;99.90
41985;DHT22;28319;48.116;10.818;2023-01-28T22:29:06;-0.50;99.90
41985;DHT22;28319;48.116;10.818;2023-01-28T22:34:09;-0.40;99.90
41985;DHT22;28319;48.116;10.818;2023-01-28T22:39:13;-0.30;99.90
41985;DHT22;28319;48.116;10.818;2023-01-28T22:44:17;-0.20;99.90
41985;DHT22;28319;48.116;10.818;2023-01-28T22:49:19;-0.30;99.90
41985;DHT22;28319;48.116;10.818;2023-01-28T22:54:21;-0.30;99.90
41985;DHT22;28319;48.116;10.818;2023-01-28T22:59:25;-0.30;99.90
41985;DHT22;28319;48.116;10.818;2023-01-28T23:04:27;-0.30;99.90
41985;DHT22;28319;48.116;10.818;2023-01-28T23:09:29;-0.30;99.90
41985;DHT22;28319;48.116;10.818;2023-01-28T23:14:33;-0.40;99.90
41985;DHT22;28319;48.116;10.818;2023-01-28T23:19:52;-0.30;99.90
41985;DHT22;28319;48.116;10.818;2023-01-28T23:25:12;-0.30;99.90
41985;DHT22;28319;48.116;10.818;2023-01-28T23:30:17;-0.30;99.90
41985;DHT22;28319;48.116;10.818;2023-01-28T23:35:24;-0.30;99.90
41985;DHT22;28319;48.116;10.818;2023-01-28T23:40:27;-0.30;99.90
41985;DHT22;28319;48.116;10.818;2023-01-28T23:45:30;-0.20;99.90
41985;DHT22;28319;48.116;10.818;2023-01-28T23:50:32;-0.20;99.90
41985;DHT22;28319;48.116;10.818;2023-01-28T23:55:37;-0.20;99.90
